createdAt,value
2022-11-12T00:02:15.540Z,101577.66
2022-11-12T00:05:00.849Z,101585.84
2022-11-12T00:07:46.531Z,101582.31
2022-11-12T00:10:32.378Z,101579.72
2022-11-12T00:13:18.082Z,101585.84
2022-11-12T00:16:02.978Z,101575.66
2022-11-12T00:18:48.746Z,101580.00
2022-11-12T00:21:33.959Z,101583.41
2022-11-12T00:24:19.139Z,101581.63
2022-11-12T00:27:04.276Z,101583.53
2022-11-12T00:29:49.622Z,101586.25
2022-11-12T00:32:38.469Z,101580.56
2022-11-12T00:35:23.770Z,101584.78
2022-11-12T00:38:08.952Z,101570.66
2022-11-12T00:40:54.599Z,101573.50
2022-11-12T00:43:40.943Z,101562.50
2022-11-12T00:46:26.023Z,101571.91
2022-11-12T00:49:12.463Z,101564.41
2022-11-12T00:51:57.545Z,101562.78
2022-11-12T00:54:42.933Z,101560.66
2022-11-12T00:57:29.956Z,101565.00
2022-11-12T01:00:17.780Z,101566.91
2022-11-12T01:03:03.258Z,101568.53
2022-11-12T01:05:48.300Z,101554.94
2022-11-12T01:08:33.773Z,101547.31
2022-11-12T01:11:21.848Z,101544.06
2022-11-12T01:14:09.026Z,101538.06
2022-11-12T01:16:54.309Z,101540.66
2022-11-12T01:19:40.349Z,101543.22
2022-11-12T01:22:25.708Z,101550.19
2022-11-12T01:25:11.589Z,101544.19
2022-11-12T01:27:56.719Z,101539.19
2022-11-12T01:30:41.813Z,101533.47
2022-11-12T01:33:27.390Z,101519.84
2022-11-12T01:36:13.648Z,101520.13
2022-11-12T01:38:59.091Z,101521.75
2022-11-12T01:41:44.472Z,101528.88
2022-11-12T01:44:32.423Z,101528.88
2022-11-12T01:47:33.105Z,101520.41
2022-11-12T01:50:26.693Z,101525.31
2022-11-12T01:53:14.125Z,101526.94
2022-11-12T01:56:00.863Z,101517.41
2022-11-12T01:58:49.212Z,101525.84
2022-11-12T02:01:36.046Z,101509.50
2022-11-12T02:04:23.716Z,101517.25
2022-11-12T02:07:09.880Z,101517.25
2022-11-12T02:09:55.965Z,101515.22
2022-11-12T02:13:00.192Z,101517.50
2022-11-12T02:18:54.412Z,101517.38
2022-11-12T02:21:40.095Z,101512.31
2022-11-12T02:24:25.256Z,101515.94
2022-11-12T02:27:12.568Z,101505.31
2022-11-12T02:29:58.020Z,101496.00
2022-11-12T02:32:43.258Z,101504.53
2022-11-12T02:35:28.678Z,101505.72
2022-11-12T02:38:13.791Z,101502.66
2022-11-12T02:40:58.723Z,101502.53
2022-11-12T02:43:45.312Z,101507.56
2022-11-12T02:46:30.533Z,101505.50
2022-11-12T02:49:15.705Z,101516.28
2022-11-12T02:52:00.959Z,101520.16
2022-11-12T02:54:46.285Z,101515.13
2022-11-12T02:57:31.615Z,101513.63
2022-11-12T03:00:18.422Z,101523.28
2022-11-12T03:03:03.714Z,101521.00
2022-11-12T03:05:59.813Z,101505.09
2022-11-12T03:08:45.383Z,101510.28
2022-11-12T03:11:30.404Z,101501.19
2022-11-12T03:14:15.663Z,101499.03
2022-11-12T03:17:00.937Z,101494.28
2022-11-12T03:19:46.235Z,101484.91
2022-11-12T03:22:31.316Z,101474.84
2022-11-12T03:25:16.775Z,101481.25
2022-11-12T03:28:03.378Z,101480.06
2022-11-12T03:30:48.969Z,101477.91
2022-11-12T03:33:34.538Z,101480.78
2022-11-12T03:36:19.939Z,101484.47
2022-11-12T03:39:04.969Z,101480.72
2022-11-12T03:41:50.014Z,101475.66
2022-11-12T03:44:35.412Z,101483.53
2022-11-12T03:47:20.823Z,101498.09
2022-11-12T03:50:07.223Z,101494.03
2022-11-12T03:52:54.765Z,101499.34
2022-11-12T03:55:40.404Z,101484.78
2022-11-12T03:58:25.913Z,101500.69
2022-11-12T04:01:11.789Z,101499.72
2022-11-12T04:03:57.514Z,101497.16
2022-11-12T04:07:01.147Z,101487.50
2022-11-12T04:09:46.275Z,101479.06
2022-11-12T04:12:50.059Z,101481.53
2022-11-12T04:15:34.914Z,101472.25
2022-11-12T04:18:38.529Z,101474.72
2022-11-12T04:21:47.323Z,101479.63
2022-11-12T04:24:53.465Z,101488.31
2022-11-12T04:27:39.208Z,101486.88
2022-11-12T04:30:24.164Z,101494.06
2022-11-12T04:33:09.609Z,101494.34
2022-11-12T04:35:54.938Z,101505.00
2022-11-12T04:38:40.321Z,101514.38
2022-11-12T04:41:44.336Z,101509.59
2022-11-12T04:44:49.099Z,101514.56
2022-11-12T04:47:43.947Z,101507.31
2022-11-12T04:50:29.253Z,101509.63
2022-11-12T04:53:15.673Z,101511.19
2022-11-12T04:56:00.963Z,101491.97
2022-11-12T04:58:46.180Z,101492.41
2022-11-12T05:01:31.640Z,101495.25
2022-11-12T05:04:17.089Z,101493.63
2022-11-12T05:07:02.578Z,101497.16
2022-11-12T05:09:48.198Z,101499.22
2022-11-12T05:12:33.470Z,101492.53
2022-11-12T05:15:18.709Z,101489.28
2022-11-12T05:18:04.061Z,101491.19
2022-11-12T05:20:51.430Z,101493.09
2022-11-12T05:23:36.988Z,101488.25
2022-11-12T05:26:22.258Z,101493.41
2022-11-12T05:29:09.034Z,101496.94
2022-11-12T05:31:55.012Z,101491.78
2022-11-12T05:34:40.585Z,101490.69
2022-11-12T05:37:26.232Z,101497.63
2022-11-12T05:40:12.008Z,101495.84
2022-11-12T05:42:57.282Z,101493.25
2022-11-12T05:45:44.163Z,101485.66
2022-11-12T05:48:29.997Z,101494.91
2022-11-12T05:51:16.308Z,101496.34
2022-11-12T05:54:01.814Z,101492.00
2022-11-12T05:56:47.408Z,101495.25
2022-11-12T05:59:32.774Z,101486.44
2022-11-12T06:02:18.194Z,101494.56
2022-11-12T06:05:04.689Z,101505.56
2022-11-12T06:07:49.751Z,101506.97
2022-11-12T06:10:35.266Z,101513.44
2022-11-12T06:13:22.847Z,101507.63
2022-11-12T06:16:09.205Z,101504.75
2022-11-12T06:18:54.430Z,101518.91
2022-11-12T06:21:39.738Z,101524.31
2022-11-12T06:24:26.112Z,101516.63
2022-11-12T06:27:13.859Z,101523.88
2022-11-12T06:29:59.330Z,101525.53
2022-11-12T06:32:48.809Z,101527.38
2022-11-12T06:35:33.979Z,101537.75
2022-11-12T06:38:19.198Z,101521.94
2022-11-12T06:41:05.189Z,101523.06
2022-11-12T06:43:50.477Z,101525.63
2022-11-12T06:46:35.779Z,101526.38
2022-11-12T06:49:21.204Z,101523.53
2022-11-12T06:52:06.441Z,101515.13
2022-11-12T06:54:52.986Z,101506.88
2022-11-12T06:57:39.415Z,101519.81
2022-11-12T07:00:24.853Z,101526.78
2022-11-12T07:03:13.283Z,101535.75
2022-11-12T07:05:59.083Z,101539.31
2022-11-12T07:08:44.455Z,101538.00
2022-11-12T07:11:29.996Z,101543.69
2022-11-12T07:14:15.383Z,101547.56
2022-11-12T07:17:00.829Z,101548.72
2022-11-12T07:19:46.728Z,101554.34
2022-11-12T07:22:34.607Z,101543.03
2022-11-12T07:25:19.993Z,101546.31
2022-11-12T07:28:05.327Z,101543.72
2022-11-12T07:30:59.409Z,101553.81
2022-11-12T07:33:46.158Z,101547.97
2022-11-12T07:36:31.720Z,101538.06
2022-11-12T07:39:17.039Z,101547.31
2022-11-12T07:42:01.998Z,101549.56
2022-11-12T07:44:47.600Z,101542.25
2022-11-12T07:47:32.987Z,101546.31
2022-11-12T07:50:18.440Z,101544.00
2022-11-12T07:53:03.394Z,101535.53
2022-11-12T07:56:00.017Z,101539.84
2022-11-12T07:58:46.135Z,101538.56
2022-11-12T08:01:34.244Z,101531.28
2022-11-12T08:04:20.769Z,101534.38
2022-11-12T08:07:06.365Z,101538.41
2022-11-12T08:09:51.587Z,101543.13
2022-11-12T08:12:36.937Z,101547.66
2022-11-12T08:15:22.312Z,101554.22
2022-11-12T08:18:07.422Z,101554.75
2022-11-12T08:20:52.863Z,101551.59
2022-11-12T08:23:37.890Z,101555.13
2022-11-12T08:26:23.823Z,101551.78
2022-11-12T08:29:09.286Z,101560.50
2022-11-12T08:31:54.751Z,101559.69
2022-11-12T08:34:41.530Z,101563.81
2022-11-12T08:37:26.967Z,101550.41
2022-11-12T08:40:12.753Z,101552.84
2022-11-12T08:43:05.973Z,101555.25
2022-11-12T08:45:51.263Z,101564.88
2022-11-12T08:48:36.834Z,101565.13
2022-11-12T08:51:22.007Z,101572.47
2022-11-12T08:54:07.327Z,101569.97
2022-11-12T08:56:52.865Z,101568.69
2022-11-12T08:59:38.067Z,101573.56
2022-11-12T09:02:23.370Z,101589.69
2022-11-12T09:05:08.940Z,101590.66
2022-11-12T09:08:02.096Z,101592.94
2022-11-12T09:10:48.077Z,101604.81
2022-11-12T09:13:33.768Z,101608.81
2022-11-12T09:16:19.367Z,101612.53
2022-11-12T09:19:04.640Z,101611.56
2022-11-12T09:21:50.964Z,101610.78
2022-11-12T09:24:36.369Z,101620.00
2022-11-12T09:27:22.087Z,101622.63
2022-11-12T09:30:08.773Z,101624.75
2022-11-12T09:32:58.604Z,101627.72
2022-11-12T09:35:46.764Z,101620.88
2022-11-12T09:38:32.408Z,101620.06
2022-11-12T09:41:37.975Z,101618.78
2022-11-12T09:44:24.503Z,101618.59
2022-11-12T09:47:19.300Z,101622.00
2022-11-12T09:50:26.248Z,101618.75
2022-11-12T09:53:29.490Z,101614.50
2022-11-12T09:56:20.569Z,101617.91
2022-11-12T09:59:14.528Z,101621.97
2022-11-12T10:02:26.055Z,101623.56
2022-11-12T10:05:31.979Z,101624.72
2022-11-12T10:08:35.079Z,101622.94
2022-11-12T10:11:28.860Z,101632.16
2022-11-12T10:14:31.363Z,101625.00
2022-11-12T10:17:41.896Z,101623.19
2022-11-12T10:20:51.321Z,101624.44
2022-11-12T10:23:46.049Z,101625.03
2022-11-12T10:26:34.055Z,101626.97
2022-11-12T10:29:36.347Z,101624.84
2022-11-12T10:32:21.446Z,101632.09
2022-11-12T10:35:06.930Z,101627.19
2022-11-12T10:37:57.628Z,101626.13
2022-11-12T10:40:43.833Z,101613.84
2022-11-12T10:43:29.178Z,101612.72
2022-11-12T10:46:26.863Z,101607.00
2022-11-12T10:49:14.881Z,101600.31
2022-11-12T10:52:00.537Z,101604.66
2022-11-12T10:54:48.628Z,101597.31
2022-11-12T10:57:37.766Z,101595.31
2022-11-12T11:00:23.341Z,101601.81
2022-11-12T11:03:24.885Z,101605.72
2022-11-12T11:06:24.745Z,101596.13
2022-11-12T11:09:13.053Z,101603.78
2022-11-12T11:11:58.526Z,101613.84
2022-11-12T11:14:44.696Z,101616.75
2022-11-12T11:17:31.337Z,101607.56
2022-11-12T11:20:26.642Z,101614.06
2022-11-12T11:23:24.561Z,101603.28
2022-11-12T11:27:02.182Z,101606.75
2022-11-12T11:30:11.223Z,101599.44
2022-11-12T11:33:17.388Z,101593.97
2022-11-12T11:36:13.956Z,101595.63
2022-11-12T11:39:20.238Z,101594.03
2022-11-12T11:42:08.348Z,101591.94
2022-11-12T11:45:12.040Z,101586.81
2022-11-12T11:48:05.486Z,101570.34
2022-11-12T11:51:02.951Z,101587.44
2022-11-12T11:53:51.198Z,101580.69
2022-11-12T11:56:43.802Z,101580.56
2022-11-12T11:59:46.084Z,101580.69
2022-11-12T12:02:36.982Z,101574.44
2022-11-12T12:05:39.865Z,101563.53
2022-11-12T12:08:37.363Z,101563.81
2022-11-12T12:11:34.577Z,101553.06
2022-11-12T12:14:47.206Z,101555.16
2022-11-12T12:17:51.439Z,101560.22
2022-11-12T12:20:42.946Z,101560.06
2022-11-12T12:23:42.838Z,101557.59
2022-11-12T12:26:34.020Z,101561.19
2022-11-12T12:29:49.986Z,101560.88
2022-11-12T12:33:07.386Z,101562.38
2022-11-12T12:36:18.112Z,101557.97
2022-11-12T12:39:13.743Z,101552.50
2022-11-12T12:42:21.925Z,101553.06
2022-11-12T12:45:35.725Z,101547.03
2022-11-12T12:48:27.614Z,101551.13
2022-11-12T12:51:13.359Z,101551.63
2022-11-12T12:53:59.288Z,101552.25
2022-11-12T12:56:47.859Z,101547.38
2022-11-12T12:59:33.505Z,101553.50
2022-11-12T13:02:25.527Z,101557.38
2022-11-12T13:05:33.050Z,101545.31
2022-11-12T13:08:26.085Z,101544.41
2022-11-12T13:11:51.569Z,101548.72
2022-11-12T13:14:36.860Z,101545.88
2022-11-12T13:17:42.464Z,101546.94
2022-11-12T13:20:36.728Z,101549.47
2022-11-12T13:24:03.752Z,101548.56
2022-11-12T13:26:54.023Z,101552.41
2022-11-12T13:29:41.324Z,101551.09
2022-11-12T13:32:33.732Z,101551.69
2022-11-12T13:35:37.261Z,101551.81
2022-11-12T13:38:22.822Z,101546.59
2022-11-12T13:41:40.072Z,101537.84
2022-11-12T13:44:27.200Z,101543.72
2022-11-12T13:47:16.520Z,101544.69
2022-11-12T13:50:02.403Z,101543.88
2022-11-12T13:52:49.161Z,101538.31
2022-11-12T13:55:34.340Z,101535.50
2022-11-12T13:58:26.930Z,101535.91
2022-11-12T14:01:13.366Z,101536.59
2022-11-12T14:04:00.759Z,101532.72
2022-11-12T14:06:50.173Z,101530.81
2022-11-12T14:10:27.907Z,101534.25
2022-11-12T14:13:42.936Z,101532.25
2022-11-12T14:16:48.620Z,101535.75
2022-11-12T14:19:42.658Z,101526.44
2022-11-12T14:22:38.957Z,101522.53
2022-11-12T14:25:27.113Z,101521.13
2022-11-12T14:28:27.821Z,101525.56
2022-11-12T14:31:15.567Z,101519.25
2022-11-12T14:34:22.096Z,101517.84
2022-11-12T14:37:33.396Z,101520.28
2022-11-12T14:40:20.284Z,101518.66
2022-11-12T14:43:06.178Z,101524.38
2022-11-12T14:45:53.589Z,101523.63
2022-11-12T14:49:12.353Z,101519.66
2022-11-12T14:52:05.870Z,101519.56
2022-11-12T14:54:56.249Z,101516.38
2022-11-12T14:57:42.096Z,101509.59
2022-11-12T15:00:38.523Z,101507.22
2022-11-12T15:03:30.782Z,101512.78
2022-11-12T15:06:26.909Z,101498.88
2022-11-12T15:09:17.838Z,101513.50
2022-11-12T15:12:09.467Z,101517.13
2022-11-12T15:15:05.159Z,101527.63
2022-11-12T15:18:26.986Z,101525.69
2022-11-12T15:21:27.989Z,101521.53
2022-11-12T15:24:12.957Z,101521.53
2022-11-12T15:27:00.436Z,101521.56
2022-11-12T15:29:45.821Z,101519.78
2022-11-12T15:32:33.857Z,101526.63
2022-11-12T15:35:27.369Z,101528.91
2022-11-12T15:38:21.855Z,101527.28
2022-11-12T15:41:19.930Z,101529.44
2022-11-12T15:44:08.239Z,101524.69
2022-11-12T15:46:54.138Z,101540.81
2022-11-12T15:49:48.788Z,101529.78
2022-11-12T15:52:34.238Z,101534.97
2022-11-12T15:55:20.647Z,101532.72
2022-11-12T15:58:12.159Z,101537.56
2022-11-12T16:00:58.119Z,101540.16
2022-11-12T16:03:43.507Z,101531.41
2022-11-12T16:06:29.226Z,101535.44
2022-11-12T16:09:14.259Z,101532.53
2022-11-12T16:12:00.590Z,101540.00
2022-11-12T16:14:45.951Z,101549.22
2022-11-12T16:17:31.521Z,101542.56
2022-11-12T16:20:23.231Z,101532.66
2022-11-12T16:23:08.371Z,101545.03
2022-11-12T16:25:54.198Z,101538.19
2022-11-12T16:28:39.739Z,101527.44
2022-11-12T16:31:25.498Z,101544.03
2022-11-12T16:34:11.424Z,101532.97
2022-11-12T16:36:57.326Z,101534.94
2022-11-12T16:39:42.762Z,101535.56
2022-11-12T16:42:28.941Z,101537.50
2022-11-12T16:45:22.303Z,101538.47
2022-11-12T16:48:21.813Z,101536.34
2022-11-12T16:51:10.212Z,101538.28
2022-11-12T16:53:55.596Z,101538.63
2022-11-12T16:56:41.029Z,101534.72
2022-11-12T16:59:26.456Z,101542.78
2022-11-12T17:02:15.754Z,101537.41
2022-11-12T17:05:05.286Z,101556.34
2022-11-12T17:07:55.134Z,101555.34
2022-11-12T17:10:40.404Z,101548.06
2022-11-12T17:13:26.398Z,101548.38
2022-11-12T17:16:12.451Z,101553.81
2022-11-12T17:18:59.604Z,101559.00
2022-11-12T17:21:44.974Z,101565.66
2022-11-12T17:24:30.355Z,101564.63
2022-11-12T17:27:15.776Z,101564.13
2022-11-12T17:30:00.965Z,101554.91
2022-11-12T17:32:46.450Z,101556.81
2022-11-12T17:35:34.469Z,101552.09
2022-11-12T17:38:20.129Z,101547.56
2022-11-12T17:41:06.691Z,101548.50
2022-11-12T17:44:01.786Z,101545.59
2022-11-12T17:46:48.083Z,101543.66
2022-11-12T17:49:33.177Z,101540.25
2022-11-12T17:52:18.519Z,101535.34
2022-11-12T17:55:03.616Z,101536.47
2022-11-12T17:57:49.718Z,101534.06
2022-11-12T18:00:36.939Z,101532.22
2022-11-12T18:03:22.279Z,101530.06
2022-11-12T18:06:15.359Z,101543.19
2022-11-12T18:09:04.822Z,101551.25
2022-11-12T18:11:56.892Z,101541.19
2022-11-12T18:14:42.277Z,101540.53
2022-11-12T18:17:27.646Z,101540.84
2022-11-12T18:20:13.225Z,101544.00
2022-11-12T18:22:58.302Z,101539.78
2022-11-12T18:25:43.545Z,101543.38
2022-11-12T18:28:29.327Z,101542.38
2022-11-12T18:31:14.389Z,101542.38
2022-11-12T18:33:59.789Z,101546.59
2022-11-12T18:36:45.226Z,101545.31
2022-11-12T18:39:30.939Z,101551.56
2022-11-12T18:42:15.965Z,101552.69
2022-11-12T18:45:00.893Z,101550.41
2022-11-12T18:47:46.374Z,101554.94
2022-11-12T18:50:32.774Z,101540.47
2022-11-12T18:53:18.244Z,101546.78
2022-11-12T18:56:15.199Z,101545.75
2022-11-12T18:59:00.632Z,101548.03
2022-11-12T19:01:46.268Z,101542.19
2022-11-12T19:04:32.061Z,101540.56
2022-11-12T19:07:17.273Z,101547.66
2022-11-12T19:10:14.610Z,101540.06
2022-11-12T19:13:03.903Z,101536.78
2022-11-12T19:15:49.184Z,101543.44
2022-11-12T19:18:35.661Z,101546.34
2022-11-12T19:21:23.995Z,101538.88
2022-11-12T19:24:09.335Z,101538.78
2022-11-12T19:26:54.928Z,101548.91
2022-11-12T19:29:40.421Z,101555.50
2022-11-12T19:32:25.650Z,101557.28
2022-11-12T19:35:11.152Z,101557.69
2022-11-12T19:37:56.622Z,101564.78
2022-11-12T19:40:42.310Z,101556.66
2022-11-12T19:43:28.543Z,101561.97
2022-11-12T19:46:14.748Z,101559.16
2022-11-12T19:49:00.108Z,101563.91
2022-11-12T19:51:45.452Z,101567.31
2022-11-12T19:54:30.793Z,101567.47
2022-11-12T19:57:18.346Z,101569.69
2022-11-12T20:00:04.673Z,101585.13
2022-11-12T20:02:49.869Z,101569.59
2022-11-12T20:05:35.034Z,101575.91
2022-11-12T20:08:26.812Z,101577.56
2022-11-12T20:11:13.178Z,101585.78
2022-11-12T20:13:58.424Z,101579.88
2022-11-12T20:16:43.636Z,101578.16
2022-11-12T20:19:29.086Z,101583.19
2022-11-12T20:22:14.354Z,101590.94
2022-11-12T20:25:00.839Z,101586.03
2022-11-12T20:27:45.981Z,101585.34
2022-11-12T20:30:31.366Z,101589.47
2022-11-12T20:33:16.817Z,101588.09
2022-11-12T20:36:25.027Z,101591.78
2022-11-12T20:39:10.527Z,101602.41
2022-11-12T20:41:55.481Z,101597.75
2022-11-12T20:44:41.600Z,101606.19
2022-11-12T20:47:27.038Z,101591.94
2022-11-12T20:50:12.376Z,101587.41
2022-11-12T20:52:58.033Z,101590.94
2022-11-12T20:55:43.360Z,101590.31
2022-11-12T20:58:30.208Z,101587.00
2022-11-12T21:01:17.956Z,101591.13
2022-11-12T21:04:03.374Z,101594.53
2022-11-12T21:06:48.915Z,101589.03
2022-11-12T21:09:34.842Z,101592.31
2022-11-12T21:12:20.146Z,101587.69
2022-11-12T21:15:05.966Z,101587.13
2022-11-12T21:17:52.673Z,101586.09
2022-11-12T21:20:38.147Z,101585.28
2022-11-12T21:23:23.812Z,101579.25
2022-11-12T21:26:15.795Z,101572.34
2022-11-12T21:29:01.066Z,101577.06
2022-11-12T21:31:46.634Z,101571.63
2022-11-12T21:34:32.007Z,101577.47
2022-11-12T21:37:18.319Z,101574.88
2022-11-12T21:40:03.848Z,101574.06
2022-11-12T21:42:48.932Z,101569.47
2022-11-12T21:45:33.980Z,101579.94
2022-11-12T21:48:18.997Z,101577.22
2022-11-12T21:51:09.399Z,101565.34
2022-11-12T21:53:56.806Z,101560.19
2022-11-12T21:56:42.296Z,101567.84
2022-11-12T21:59:27.579Z,101564.28
2022-11-12T22:02:14.148Z,101557.75
2022-11-12T22:04:59.650Z,101563.06
2022-11-12T22:07:45.021Z,101563.19
2022-11-12T22:10:30.293Z,101558.84
2022-11-12T22:13:31.011Z,101552.56
2022-11-12T22:16:21.625Z,101554.47
2022-11-12T22:19:07.142Z,101557.50
2022-11-12T22:21:55.215Z,101567.53
2022-11-12T22:24:40.653Z,101570.50
2022-11-12T22:27:25.936Z,101568.63
2022-11-12T22:30:11.539Z,101569.13
2022-11-12T22:32:56.487Z,101566.66
2022-11-12T22:35:41.790Z,101571.41
2022-11-12T22:38:27.708Z,101562.13
2022-11-12T22:41:23.446Z,101569.44
2022-11-12T22:44:08.875Z,101572.00
2022-11-12T22:46:54.206Z,101570.72
2022-11-12T22:49:39.488Z,101576.59
2022-11-12T22:52:24.819Z,101576.00
2022-11-12T22:55:10.277Z,101575.31
2022-11-12T22:57:55.646Z,101569.00
2022-11-12T23:00:42.490Z,101574.84
2022-11-12T23:03:30.000Z,101573.34
2022-11-12T23:06:15.329Z,101563.69
2022-11-12T23:09:01.645Z,101574.28
2022-11-12T23:11:49.359Z,101568.53
2022-11-12T23:14:35.074Z,101563.56
2022-11-12T23:17:20.551Z,101561.06
2022-11-12T23:20:06.213Z,101554.47
2022-11-12T23:22:52.340Z,101559.06
2022-11-12T23:25:37.734Z,101555.88
2022-11-12T23:28:22.635Z,101553.63
2022-11-12T23:31:20.171Z,101544.28
2022-11-12T23:34:05.481Z,101549.94
2022-11-12T23:36:51.062Z,101551.72
2022-11-12T23:39:36.062Z,101556.22
2022-11-12T23:42:21.539Z,101554.94
2022-11-12T23:45:08.540Z,101550.63
2022-11-12T23:47:55.896Z,101558.63
2022-11-12T23:50:41.472Z,101562.16
2022-11-12T23:53:26.623Z,101556.97
2022-11-12T23:56:15.829Z,101553.44
2022-11-12T23:59:00.964Z,101550.56
